Calamonte, Spain
Current Conditions -  °F | °C
As of 9:00 PM on Sunday 25 Jan 2015 (Local Time) from LEBZ Reporting Station
Clear Clear  
Wind Chill: 50°   Ceiling: Unl
Heat Index: 50°   Visibility: 6mi
Dew Point: 36°   Wind: 0mph
Humidity: 58%   Direction: NA
Pressure: 30.33"   Gusts: NA
Location:  38.89°N, 6.39°W
Report Text: LEBZ 252000Z 00000KT CAVOK 10/02 Q1027
Loading
Personal Weather Stations






























Interactive Weather Map New forecast layout! Learn more

10-Day Weather Forecast

Advertisements
Track Severe Weather on mobile